Archival Weather

Snohomish County (Paine Fld)

Everett, Washington (KPAE)

Report from: Friday, November 10, 2023 9:53 AM PST
Current time: Monday, June 17, 2024 1:32 AM PDT

Current weather – Weather history – Daily summaries
Weather forecast

Temperature8.9°C (48.0°F)
Wind chill6.6°C (43.9°F)
Dew point5.6°C (42.1°F)
Winds 8 kts (4.1 m/s, 9.2 mph) South-Southeast (160°)
Visibility10 mi. (16.1 km)
Clouds Ceiling: Broken clouds 800 ft. (244 m)
Altimeter30.12 in.Hg (1020 mB)
Relative humidity80 %
Density altitude-828 ft. (-252 m)
Sea-level pressure102.0 kPa (1020 mB, 30.12 in.Hg)
Max temp last 6 hours8.9°C (48.0°F)
Min temp last 6 hours7.2°C (45.0°F)
Remarks Automated weather observing station with precipitation discriminator
Pressure rising, then falling
Flight conditions Instrument Meteorological Conditions
Raw dataKPAE 101753Z 16008KT 10SM BKN008 09/06 A3012 RMK AO2 SLP200 T00890056 10089 20072 50002
An error has occurred. This application may no longer respond until reloaded. Reload 🗙